Time;durP1;ratioP1;P1;durP2;ratioP2;P2;SDS_P1;SDS_P2;PMS_P1;PMS_P2;Temp;Humidity;BMP_temperature;BMP_pressure;BME280_temperature;BME280_humidity;BME280_pressure;Samples;Min_cycle;Max_cycle;Signal;HPM_P1;HPM_P2
2022/07/08 00:01:38;;;;;;;9.98;2.92;;;;;;;16.02;69.00;102910.38;4944162;29;20049;-48
2022/07/08 00:04:06;;;;;;;9.88;2.97;;;;;;;16.01;69.05;102922.47;4942552;29;20051;-48
2022/07/08 00:06:34;;;;;;;11.82;2.90;;;;;;;16.01;68.79;102916.13;4937346;29;20055;-48
2022/07/08 00:09:02;;;;;;;10.23;3.20;;;;;;;15.99;68.87;102919.13;4920148;29;20048;-48
2022/07/08 00:11:29;;;;;;;8.80;2.70;;;;;;;16.00;68.41;102920.81;4920940;29;20035;-47
2022/07/08 00:13:57;;;;;;;12.30;3.15;;;;;;;16.01;68.37;102919.72;4936842;29;20186;-48
2022/07/08 00:16:25;;;;;;;12.52;3.05;;;;;;;16.01;68.43;102924.38;4955407;28;20039;-48
2022/07/08 00:18:52;;;;;;;11.30;3.17;;;;;;;16.01;68.22;102921.63;4927936;29;20044;-48
2022/07/08 00:21:20;;;;;;;10.07;3.03;;;;;;;16.01;68.35;102922.47;4919305;29;20040;-48
2022/07/08 00:23:48;;;;;;;10.68;2.70;;;;;;;16.00;67.88;102920.81;4940014;29;20055;-48
2022/07/08 00:26:15;;;;;;;10.35;2.40;;;;;;;15.96;67.84;102925.13;4940610;29;20095;-49
2022/07/08 00:28:43;;;;;;;8.93;2.80;;;;;;;15.93;67.93;102923.72;4937053;29;20411;-48
2022/07/08 00:31:11;;;;;;;11.05;3.00;;;;;;;15.90;68.40;102926.16;4935761;29;20054;-47
2022/07/08 00:33:38;;;;;;;11.00;2.97;;;;;;;15.88;68.23;102925.59;4921049;29;20051;-48
2022/07/08 00:36:06;;;;;;;9.93;3.08;;;;;;;15.88;68.19;102922.84;4937144;29;20055;-50
2022/07/08 00:38:34;;;;;;;7.85;2.92;;;;;;;15.89;67.98;102919.00;4936458;29;20406;-48
2022/07/08 00:41:01;;;;;;;10.00;2.63;;;;;;;15.89;68.17;102929.97;4936424;29;20055;-48
2022/07/08 00:43:40;;;;;;;10.80;2.38;;;;;;;15.88;68.11;102923.66;4939050;29;20043;-49
2022/07/08 00:46:08;;;;;;;9.77;2.55;;;;;;;15.87;68.11;102926.66;4944314;29;20040;-50
2022/07/08 00:48:36;;;;;;;9.13;2.72;;;;;;;15.84;68.04;102917.00;4919574;29;20083;-50
2022/07/08 00:51:07;;;;;;;7.30;2.22;;;;;;;15.81;68.14;102920.25;4936068;29;20487;-48
2022/07/08 00:53:36;;;;;;;8.13;2.45;;;;;;;15.81;68.70;102930.44;4936279;29;20039;-51
2022/07/08 00:56:04;;;;;;;8.48;2.33;;;;;;;15.84;68.31;102922.50;4938632;29;20071;-49
2022/07/08 00:58:35;;;;;;;10.75;2.55;;;;;;;15.87;68.26;102929.41;4935435;29;20407;-50
2022/07/08 01:01:03;;;;;;;9.40;2.50;;;;;;;15.87;68.19;102927.47;4960943;28;20036;-49
2022/07/08 01:03:31;;;;;;;9.02;2.60;;;;;;;15.86;68.43;102925.00;4923530;29;20051;-49
2022/07/08 01:05:58;;;;;;;9.40;2.55;;;;;;;15.85;68.22;102928.81;4906327;29;20039;-47
2022/07/08 01:08:26;;;;;;;9.07;2.58;;;;;;;15.81;68.38;102927.69;4936127;29;20052;-50
2022/07/08 01:10:54;;;;;;;7.57;2.85;;;;;;;15.79;68.75;102941.66;4936622;29;20054;-51
2022/07/08 01:13:22;;;;;;;13.52;3.45;;;;;;;15.74;69.01;102936.91;4935581;29;20067;-48
2022/07/08 01:15:50;;;;;;;10.45;3.15;;;;;;;15.74;69.18;102941.59;4919988;29;20515;-48
2022/07/08 01:18:22;;;;;;;7.63;2.90;;;;;;;15.74;69.18;102939.66;4935896;29;20101;-49
2022/07/08 01:20:50;;;;;;;9.95;2.60;;;;;;;15.74;69.25;102936.09;4920169;29;20086;-50
2022/07/08 01:23:18;;;;;;;9.73;2.50;;;;;;;15.73;69.21;102942.69;4935380;29;20051;-48
2022/07/08 01:25:47;;;;;;;7.97;2.58;;;;;;;15.72;69.14;102936.31;4918791;29;20055;-49
2022/07/08 01:28:15;;;;;;;12.20;2.80;;;;;;;15.71;69.53;102945.66;4918853;29;20512;-48
2022/07/08 01:30:43;;;;;;;10.88;2.45;;;;;;;15.68;69.31;102939.78;4923837;29;20044;-49
2022/07/08 01:33:11;;;;;;;10.30;2.90;;;;;;;15.64;69.65;102933.97;4935752;29;20040;-50
2022/07/08 01:35:39;;;;;;;9.55;2.40;;;;;;;15.64;70.11;102933.16;4919505;29;20046;-49
2022/07/08 01:38:06;;;;;;;9.57;2.70;;;;;;;15.63;69.77;102935.03;4922820;29;20050;-48
2022/07/08 01:40:34;;;;;;;9.20;2.42;;;;;;;15.62;70.22;102936.13;4919826;29;20530;-48
2022/07/08 01:43:02;;;;;;;7.53;2.40;;;;;;;15.61;70.44;102937.25;4935442;29;20491;-48
2022/07/08 01:45:29;;;;;;;8.65;2.70;;;;;;;15.61;70.37;102933.63;4935935;29;20043;-49
2022/07/08 01:47:57;;;;;;;11.18;2.92;;;;;;;15.60;70.67;102932.81;4936720;29;20499;-49
2022/07/08 01:50:24;;;;;;;9.25;2.97;;;;;;;15.60;70.48;102932.81;4940108;29;20515;-49
2022/07/08 01:52:52;;;;;;;10.32;3.05;;;;;;;15.59;70.64;102922.09;4937045;29;20479;-52
2022/07/08 01:55:20;;;;;;;10.32;2.90;;;;;;;15.57;71.07;102924.25;4952379;29;20498;-50
2022/07/08 01:57:47;;;;;;;10.82;3.00;;;;;;;15.55;71.21;102924.47;4944090;29;20045;-49
2022/07/08 02:00:15;;;;;;;10.65;2.85;;;;;;;15.53;71.07;102918.41;4940319;29;20049;-49
2022/07/08 02:02:44;;;;;;;6.43;2.75;;;;;;;15.52;71.39;102925.00;4939274;29;20046;-47
2022/07/08 02:05:13;;;;;;;12.30;2.90;;;;;;;15.52;71.55;102916.75;4939571;29;20067;-50
2022/07/08 02:07:42;;;;;;;11.80;3.03;;;;;;;15.52;71.41;102922.25;4923914;29;20058;-49
2022/07/08 02:10:10;;;;;;;8.43;2.85;;;;;;;15.54;71.47;102922.84;4941755;29;20051;-49
2022/07/08 02:12:38;;;;;;;8.75;2.95;;;;;;;15.53;71.88;102926.66;4922276;29;20044;-48
2022/07/08 02:15:08;;;;;;;9.32;2.80;;;;;;;15.50;71.79;102938.13;4941968;29;20058;-49
2022/07/08 02:17:37;;;;;;;12.80;3.40;;;;;;;15.47;72.32;102938.66;4939149;29;20067;-48
2022/07/08 02:20:12;;;;;;;9.20;3.03;;;;;;;15.44;72.57;102933.63;4939233;29;20044;-48
2022/07/08 02:22:42;;;;;;;13.35;3.08;;;;;;;15.41;72.83;102934.97;4939039;29;20039;-48
2022/07/08 02:25:10;;;;;;;11.45;3.05;;;;;;;15.41;72.93;102939.63;4939186;29;20048;-47
2022/07/08 02:27:37;;;;;;;10.20;2.90;;;;;;;15.42;72.84;102941.31;4951298;29;20054;-49
2022/07/08 02:30:05;;;;;;;12.02;3.10;;;;;;;15.42;73.08;102930.31;4945343;29;20044;-47
2022/07/08 02:32:33;;;;;;;9.25;2.78;;;;;;;15.40;73.39;102921.50;4953314;29;20036;-48
2022/07/08 02:35:01;;;;;;;9.77;2.95;;;;;;;15.40;73.41;102922.31;4938290;29;20042;-48
2022/07/08 02:37:28;;;;;;;12.55;3.10;;;;;;;15.37;73.59;102932.97;4938737;29;20044;-48
2022/07/08 02:39:56;;;;;;;14.93;3.70;;;;;;;15.33;73.72;102933.47;4940991;29;20074;-48
2022/07/08 02:42:24;;;;;;;10.93;2.83;;;;;;;15.32;74.05;102937.31;4939023;29;20048;-48
2022/07/08 02:44:51;;;;;;;10.02;2.70;;;;;;;15.32;73.97;102934.56;4938714;29;20048;-50
2022/07/08 02:47:19;;;;;;;10.80;3.15;;;;;;;15.33;74.04;102938.97;4945316;29;20043;-50
2022/07/08 02:49:47;;;;;;;12.85;3.13;;;;;;;15.29;74.34;102929.53;4938251;29;20048;-53
2022/07/08 02:52:14;;;;;;;12.02;2.92;;;;;;;15.27;74.53;102933.63;4923158;29;20422;-53
2022/07/08 02:54:42;;;;;;;12.02;3.35;;;;;;;15.24;74.83;102940.44;4938447;29;20050;-52
2022/07/08 02:57:09;;;;;;;10.43;3.35;;;;;;;15.21;74.73;102935.44;4921819;29;20043;-49
2022/07/08 02:59:37;;;;;;;8.55;2.95;;;;;;;15.22;75.05;102934.34;4939478;29;20039;-50
2022/07/08 03:02:05;;;;;;;12.35;3.35;;;;;;;15.22;75.16;102931.59;4921055;29;20517;-52
2022/07/08 03:04:39;;;;;;;9.43;2.90;;;;;;;15.21;75.16;102935.44;4939481;29;20111;-54
2022/07/08 03:07:07;;;;;;;11.35;3.05;;;;;;;15.21;75.26;102935.44;4938553;29;20064;-53
2022/07/08 03:09:35;;;;;;;10.25;3.35;;;;;;;15.18;75.25;102938.69;4942231;29;20498;-49
2022/07/08 03:12:03;;;;;;;12.82;3.08;;;;;;;15.14;75.56;102940.25;4921489;29;20403;-49
2022/07/08 03:14:30;;;;;;;11.75;3.35;;;;;;;15.11;75.67;102936.09;4937941;29;20056;-49
2022/07/08 03:16:58;;;;;;;8.73;3.05;;;;;;;15.11;75.84;102940.78;4943305;29;20043;-48
2022/07/08 03:19:25;;;;;;;9.13;2.75;;;;;;;15.12;75.95;102945.16;4943958;29;20052;-47
2022/07/08 03:21:53;;;;;;;12.75;3.40;;;;;;;15.14;76.08;102948.50;4937546;29;20063;-48
2022/07/08 03:24:21;;;;;;;9.27;2.95;;;;;;;15.17;76.15;102948.00;4944772;29;20044;-49
2022/07/08 03:26:48;;;;;;;9.88;3.60;;;;;;;15.15;75.95;102952.91;4942908;29;20069;-49
2022/07/08 03:29:16;;;;;;;12.02;3.47;;;;;;;15.10;76.07;102939.09;4930308;29;20522;-48
2022/07/08 03:31:44;;;;;;;12.98;3.25;;;;;;;15.07;76.04;102942.31;4921129;29;20059;-48
2022/07/08 03:34:11;;;;;;;10.80;3.30;;;;;;;15.06;76.30;102943.41;4937713;29;20070;-48
2022/07/08 03:36:39;;;;;;;12.40;3.10;;;;;;;15.08;76.44;102935.75;4938037;29;20058;-49
2022/07/08 03:39:07;;;;;;;11.05;3.22;;;;;;;15.05;76.62;102945.31;4938764;29;20044;-47
2022/07/08 03:41:34;;;;;;;9.48;3.05;;;;;;;15.02;76.75;102943.06;4938720;29;20122;-47
2022/07/08 03:44:02;;;;;;;10.43;3.08;;;;;;;14.95;77.02;102941.56;4941815;29;20044;-48
2022/07/08 03:46:30;;;;;;;12.05;3.20;;;;;;;14.95;77.53;102939.63;4938992;29;20509;-47
2022/07/08 03:48:58;;;;;;;8.68;3.17;;;;;;;14.95;77.75;102947.03;4943232;29;20071;-49
2022/07/08 03:51:26;;;;;;;10.88;3.35;;;;;;;14.98;77.72;102957.53;4937857;29;20505;-48
2022/07/08 03:53:53;;;;;;;11.77;3.40;;;;;;;14.96;77.68;102946.81;4952205;29;20499;-48
2022/07/08 03:56:21;;;;;;;11.48;3.58;;;;;;;14.97;77.89;102958.63;4938684;29;20039;-48
2022/07/08 03:58:49;;;;;;;12.18;3.15;;;;;;;14.98;77.74;102954.78;4937719;29;20047;-48
2022/07/08 04:01:16;;;;;;;12.07;3.22;;;;;;;14.99;77.72;102945.50;4953222;29;20406;-50
2022/07/08 04:03:44;;;;;;;10.30;3.15;;;;;;;15.01;77.75;102948.78;4946315;29;20062;-53
2022/07/08 04:06:12;;;;;;;13.32;3.38;;;;;;;14.98;77.61;102947.38;4936015;29;20048;-46
2022/07/08 04:08:39;;;;;;;9.93;3.40;;;;;;;14.97;77.92;102956.69;4936361;29;20117;-44
2022/07/08 04:11:07;;;;;;;10.80;3.78;;;;;;;14.97;77.82;102950.38;4917808;29;20048;-47
2022/07/08 04:13:37;;;;;;;13.20;3.38;;;;;;;14.96;78.02;102963.28;4923242;29;20051;-44
2022/07/08 04:16:06;;;;;;;12.05;4.07;;;;;;;14.95;78.20;102955.28;4903640;29;20395;-50
2022/07/08 04:18:33;;;;;;;10.10;3.13;;;;;;;14.91;78.30;102969.50;4936242;29;20052;-49
2022/07/08 04:21:02;;;;;;;10.30;3.50;;;;;;;14.93;78.40;102962.91;4937610;29;20059;-46
2022/07/08 04:23:29;;;;;;;13.10;3.50;;;;;;;14.93;78.62;102962.91;4918732;29;20042;-48
2022/07/08 04:25:58;;;;;;;14.18;3.45;;;;;;;14.95;78.73;102963.50;4937015;29;20107;-48
2022/07/08 04:28:26;;;;;;;10.05;2.83;;;;;;;14.95;78.94;102960.78;4938532;29;20063;-49
2022/07/08 04:30:56;;;;;;;14.00;3.30;;;;;;;14.96;78.84;102963.28;4936138;29;20071;-49
2022/07/08 04:33:24;;;;;;;10.85;2.97;;;;;;;14.97;78.90;102955.88;4939405;29;20048;-48
2022/07/08 04:35:51;;;;;;;10.07;3.33;;;;;;;14.97;78.97;102953.13;4935583;29;20070;-49
2022/07/08 04:38:19;;;;;;;9.98;3.50;;;;;;;14.99;78.94;102956.47;4935790;29;20070;-48
2022/07/08 04:40:47;;;;;;;9.48;3.10;;;;;;;14.99;78.90;102964.69;4962836;28;20039;-48
2022/07/08 04:43:14;;;;;;;9.20;3.08;;;;;;;15.00;79.13;102972.69;4935010;29;20048;-48
2022/07/08 04:45:48;;;;;;;8.50;2.75;;;;;;;15.00;79.03;102977.34;4936134;29;20055;-48
2022/07/08 04:48:16;;;;;;;11.02;3.00;;;;;;;14.98;79.50;102976.75;4902036;29;20044;-49
2022/07/08 04:50:44;;;;;;;11.20;3.05;;;;;;;14.98;79.39;102976.75;4945719;29;20131;-45
2022/07/08 04:53:11;;;;;;;10.60;3.00;;;;;;;14.99;79.34;102975.69;4935684;29;20040;-45
2022/07/08 04:55:39;;;;;;;10.10;3.05;;;;;;;14.98;79.53;102982.22;4942804;29;20047;-45
2022/07/08 04:58:07;;;;;;;9.95;3.00;;;;;;;14.95;79.81;102990.97;4920786;29;20052;-46
2022/07/08 05:00:34;;;;;;;11.00;3.42;;;;;;;14.94;80.13;103000.28;4935786;29;20492;-44
2022/07/08 05:03:02;;;;;;;12.57;3.60;;;;;;;14.96;80.01;102995.38;4919424;29;20156;-44
2022/07/08 05:05:30;;;;;;;11.98;3.45;;;;;;;14.97;79.84;102994.31;4936885;29;20127;-44
2022/07/08 05:07:58;;;;;;;12.00;3.40;;;;;;;14.98;79.92;103005.03;4947160;29;20471;-45
2022/07/08 05:10:27;;;;;;;9.85;3.47;;;;;;;14.99;79.91;103006.72;4926063;29;20047;-45
2022/07/08 05:12:56;;;;;;;13.15;4.03;;;;;;;14.99;80.23;103008.63;4932180;29;20047;-47
2022/07/08 05:15:25;;;;;;;12.52;3.25;;;;;;;14.99;80.38;103011.38;4928920;29;20138;-44
2022/07/08 05:17:54;;;;;;;15.75;3.90;;;;;;;14.98;80.32;103012.44;4918587;29;20040;-48
2022/07/08 05:20:22;;;;;;;9.57;3.30;;;;;;;14.97;80.73;103010.78;4935791;29;20122;-45
2022/07/08 05:22:49;;;;;;;10.95;3.63;;;;;;;14.97;80.72;103016.25;4935816;29;20040;-45
2022/07/08 05:25:17;;;;;;;12.75;3.30;;;;;;;15.02;81.00;103010.88;4937448;29;20050;-46
2022/07/08 05:27:45;;;;;;;15.57;3.58;;;;;;;15.01;80.85;103012.78;4935260;29;20070;-46
2022/07/08 05:30:13;;;;;;;14.98;3.88;;;;;;;15.02;81.07;103019.13;4917283;29;20134;-45
2022/07/08 05:32:40;;;;;;;14.82;3.55;;;;;;;15.00;81.17;103021.25;4934607;29;20039;-46
2022/07/08 05:35:09;;;;;;;13.73;3.53;;;;;;;14.93;81.20;103028.81;4926789;29;20031;-45
2022/07/08 05:37:38;;;;;;;12.55;3.47;;;;;;;14.84;81.37;103029.19;4920243;29;20055;-46
2022/07/08 05:40:09;;;;;;;13.20;3.92;;;;;;;14.82;81.92;103031.34;4918784;29;20139;-48
2022/07/08 05:42:37;;;;;;;15.18;3.53;;;;;;;14.83;82.21;103027.50;4935975;29;20050;-47
2022/07/08 05:45:06;;;;;;;13.55;4.03;;;;;;;14.89;82.19;103029.31;4921204;29;20035;-51
2022/07/08 05:47:34;;;;;;;10.48;3.38;;;;;;;14.95;81.62;103032.16;4938660;29;20046;-49
2022/07/08 05:50:02;;;;;;;13.57;3.50;;;;;;;14.99;81.60;103031.41;4950492;29;20415;-50
2022/07/08 05:52:29;;;;;;;12.30;3.10;;;;;;;15.01;81.89;103023.78;4918729;29;20070;-52
2022/07/08 05:54:57;;;;;;;13.10;3.40;;;;;;;15.00;81.91;103032.25;4950613;28;20044;-49
2022/07/08 05:57:25;;;;;;;14.52;3.20;;;;;;;14.99;81.55;103036.91;4934943;29;20400;-51
2022/07/08 05:59:52;;;;;;;11.60;2.97;;;;;;;15.01;81.54;103031.16;4933117;29;20047;-51
2022/07/08 06:02:20;;;;;;;12.90;3.70;;;;;;;15.05;81.61;103035.91;4934858;29;20052;-49
2022/07/08 06:04:47;;;;;;;11.02;3.00;;;;;;;15.09;81.73;103039.84;4257711;28;10000683;-49
2022/07/08 06:07:15;;;;;;;10.82;3.72;;;;;;;15.15;81.52;103038.03;4948485;29;20043;-51
2022/07/08 06:09:43;;;;;;;13.00;3.88;;;;;;;15.18;81.39;103034.00;4935406;29;20055;-47
2022/07/08 06:12:11;;;;;;;13.57;3.40;;;;;;;15.22;81.60;103037.88;4914826;29;20055;-47
2022/07/08 06:14:38;;;;;;;15.20;3.20;;;;;;;15.26;81.80;103039.06;4936899;29;20064;-46
2022/07/08 06:17:06;;;;;;;14.45;3.88;;;;;;;15.25;81.46;103045.63;4915752;29;20048;-46
2022/07/08 06:19:34;;;;;;;12.27;3.33;;;;;;;15.21;80.53;103039.81;4932010;29;20506;-46
2022/07/08 06:22:01;;;;;;;14.45;3.80;;;;;;;15.24;80.67;103044.81;4929949;29;20705;-47
2022/07/08 06:24:29;;;;;;;15.82;4.05;;;;;;;15.26;80.15;103048.16;4932749;29;20043;-47
2022/07/08 06:26:57;;;;;;;12.48;3.00;;;;;;;15.23;80.57;103048.66;4934965;29;20599;-51
2022/07/08 06:29:24;;;;;;;12.70;3.33;;;;;;;15.23;80.66;103045.91;4931948;29;20383;-50
2022/07/08 06:31:52;;;;;;;9.93;3.50;;;;;;;15.26;81.08;103056.38;4930660;29;20079;-50
2022/07/08 06:34:20;;;;;;;11.10;3.65;;;;;;;15.26;80.52;103048.16;4935965;29;20409;-53
2022/07/08 06:36:49;;;;;;;15.90;3.83;;;;;;;15.27;81.07;103044.34;4939377;29;20513;-49
2022/07/08 06:39:16;;;;;;;7.90;3.33;;;;;;;15.32;80.85;103046.31;4935339;29;20054;-49
2022/07/08 06:41:44;;;;;;;12.38;3.33;;;;;;;15.36;80.61;103054.91;4935334;29;20058;-51
2022/07/08 06:44:11;;;;;;;14.20;3.60;;;;;;;15.41;80.24;103055.00;4907899;29;20048;-49
2022/07/08 06:46:39;;;;;;;12.68;3.28;;;;;;;15.43;79.88;103058.34;4953491;29;20047;-50
2022/07/08 06:49:08;;;;;;;12.35;3.60;;;;;;;15.45;80.22;103061.69;4943718;29;20513;-52
2022/07/08 06:51:35;;;;;;;14.45;4.07;;;;;;;15.47;80.94;103062.28;4938379;29;20040;-51
2022/07/08 06:56:49;;;;;;;;;;;;;;;15.54;80.97;103062.97;4939737;29;20038;-48
2022/07/08 06:59:16;;;;;;;14.93;4.10;;;;;;;15.54;80.00;103065.72;4939304;29;19923;-48
2022/07/08 07:01:44;;;;;;;16.17;4.28;;;;;;;15.49;80.37;103051.84;4937921;29;20509;-49
2022/07/08 07:04:12;;;;;;;16.60;3.78;;;;;;;15.52;80.43;103054.13;4938068;29;20040;-50
2022/07/08 07:06:40;;;;;;;19.38;4.30;;;;;;;15.55;80.40;103057.19;4937402;29;20043;-49
2022/07/08 07:09:07;;;;;;;15.70;3.53;;;;;;;15.59;80.50;103057.56;4922425;29;20538;-49
2022/07/08 07:11:35;;;;;;;11.25;3.17;;;;;;;15.61;80.07;103049.91;4929060;29;20036;-47
2022/07/08 07:14:03;;;;;;;12.70;3.90;;;;;;;15.60;80.52;103052.88;4930884;29;20052;-48
2022/07/08 07:16:31;;;;;;;12.68;4.15;;;;;;;15.62;80.28;103043.31;4938115;29;20495;-49
2022/07/08 07:18:59;;;;;;;18.48;4.05;;;;;;;15.69;80.25;103052.22;4921563;29;20048;-50
2022/07/08 07:21:26;;;;;;;13.85;4.07;;;;;;;15.72;80.08;103054.50;4943242;29;20035;-50
2022/07/08 07:23:54;;;;;;;16.02;3.47;;;;;;;15.74;79.95;103046.84;4937424;29;20509;-47
2022/07/08 07:26:21;;;;;;;12.15;3.38;;;;;;;15.77;79.65;103051.84;4938110;29;20043;-49
2022/07/08 07:28:49;;;;;;;15.00;4.07;;;;;;;15.81;80.10;103054.94;4937763;29;20534;-50
2022/07/08 07:31:17;;;;;;;16.33;4.22;;;;;;;15.85;79.85;103055.28;4922043;29;20047;-50
2022/07/08 07:33:44;;;;;;;17.63;4.32;;;;;;;15.91;80.06;103044.13;4940918;29;20040;-48
2022/07/08 07:36:12;;;;;;;14.30;3.45;;;;;;;15.96;80.51;103038.69;4938063;29;20044;-49
2022/07/08 07:38:40;;;;;;;16.50;4.72;;;;;;;16.07;80.00;103047.97;4937929;29;20043;-48
2022/07/08 07:41:08;;;;;;;11.45;3.85;;;;;;;16.21;78.61;103047.59;4904684;29;20043;-53
2022/07/08 07:43:35;;;;;;;14.13;3.55;;;;;;;16.16;78.35;103051.97;4937944;29;20110;-51
2022/07/08 07:46:03;;;;;;;14.18;3.63;;;;;;;16.18;78.31;103055.25;4938648;29;20122;-46
2022/07/08 07:48:31;;;;;;;13.32;3.35;;;;;;;16.18;78.36;103058.00;4937619;29;20130;-50
2022/07/08 07:50:59;;;;;;;14.20;4.15;;;;;;;16.17;77.82;103059.13;4937558;29;20511;-50
2022/07/08 07:53:27;;;;;;;11.75;3.45;;;;;;;16.18;77.39;103054.44;4938144;29;20050;-50
2022/07/08 07:55:58;;;;;;;11.88;3.17;;;;;;;16.16;77.41;103051.97;4937370;29;20051;-50
2022/07/08 07:58:26;;;;;;;12.88;3.40;;;;;;;16.21;77.25;103053.09;4938660;29;20375;-49
2022/07/08 08:00:54;;;;;;;12.32;3.80;;;;;;;16.21;76.78;103058.59;4925034;29;20111;-50
2022/07/08 08:03:22;;;;;;;14.40;3.58;;;;;;;16.23;77.07;103053.69;4939254;29;20047;-49
2022/07/08 08:05:50;;;;;;;14.40;3.55;;;;;;;16.29;78.31;103060.94;4921961;29;20095;-50
2022/07/08 08:08:17;;;;;;;15.70;3.72;;;;;;;16.35;78.34;103048.91;4937527;29;20040;-49
2022/07/08 08:10:45;;;;;;;15.77;4.45;;;;;;;16.38;78.77;103059.44;4946663;29;20039;-51
2022/07/08 08:13:12;;;;;;;13.48;3.55;;;;;;;16.37;78.05;103053.09;4936840;29;20086;-48
2022/07/08 08:15:40;;;;;;;17.85;3.97;;;;;;;16.38;76.55;103064.94;4937648;29;20082;-50
2022/07/08 08:18:08;;;;;;;15.10;3.40;;;;;;;16.38;75.89;103053.94;4937157;29;20059;-49
2022/07/08 08:20:35;;;;;;;14.73;3.78;;;;;;;16.42;75.38;103066.09;4923946;29;20048;-51
2022/07/08 08:23:04;;;;;;;14.18;3.10;;;;;;;16.43;74.77;103056.75;4914061;29;20051;-43
2022/07/08 08:25:50;;;;;;;10.40;2.92;;;;;;;16.48;76.00;103067.84;4936883;29;20217;-47
2022/07/08 08:28:18;;;;;;;12.60;3.33;;;;;;;16.52;76.69;103057.97;4937664;29;20050;-48
2022/07/08 08:30:45;;;;;;;12.98;3.00;;;;;;;16.57;75.55;103063.56;4937944;29;20078;-49
2022/07/08 08:33:13;;;;;;;12.82;3.05;;;;;;;16.60;75.38;103064.97;4943309;29;20406;-48
2022/07/08 08:35:40;;;;;;;16.00;3.72;;;;;;;16.64;74.59;103057.84;4942210;29;20053;-49
2022/07/08 08:38:08;;;;;;;15.23;3.45;;;;;;;16.69;73.75;103057.09;4925184;29;20491;-49
2022/07/08 08:40:36;;;;;;;10.30;3.35;;;;;;;16.71;71.86;103052.19;4939503;29;20044;-52
2022/07/08 08:43:04;;;;;;;14.77;3.08;;;;;;;16.74;71.34;103055.28;4919502;29;20078;-53
2022/07/08 08:45:34;;;;;;;12.63;3.15;;;;;;;16.79;70.99;103054.53;4920142;29;20035;-53
2022/07/08 08:48:07;;;;;;;11.02;2.78;;;;;;;16.81;69.21;103055.09;4945666;28;20073;-51
2022/07/08 08:50:54;;;;;;;10.45;3.30;;;;;;;16.82;68.46;103054.00;4936408;29;20047;-50
2022/07/08 08:53:33;;;;;;;10.07;3.00;;;;;;;16.87;69.06;103051.31;4935944;29;20050;-50
2022/07/08 08:56:01;;;;;;;15.55;3.15;;;;;;;16.93;69.71;103038.44;4936431;29;20043;-53
2022/07/08 08:58:28;;;;;;;12.88;3.45;;;;;;;17.03;72.75;103044.91;4937552;29;20429;-52
2022/07/08 09:00:56;;;;;;;15.10;3.42;;;;;;;17.11;71.79;103043.63;4919250;29;20058;-49
2022/07/08 09:03:24;;;;;;;10.10;3.00;;;;;;;17.15;70.79;103047.53;4935847;29;20048;-51
2022/07/08 09:05:52;;;;;;;16.45;5.10;;;;;;;17.22;71.49;103039.91;4923535;29;20039;-50
2022/07/08 09:08:19;;;;;;;16.10;4.22;;;;;;;17.32;71.07;103039.19;4940535;29;20044;-49
2022/07/08 09:10:47;;;;;;;10.82;2.72;;;;;;;17.31;68.21;103045.78;4919151;29;20055;-50
2022/07/08 09:13:16;;;;;;;12.30;2.97;;;;;;;17.33;67.79;103048.28;4918508;29;20044;-47
2022/07/08 09:15:45;;;;;;;10.82;2.72;;;;;;;17.33;67.79;103042.75;4920569;29;20066;-49
2022/07/08 09:18:15;;;;;;;9.65;2.70;;;;;;;17.35;68.02;103040.59;4948041;29;20122;-50
2022/07/08 09:20:51;;;;;;;11.25;2.97;;;;;;;17.39;68.32;103048.06;4919046;29;20051;-52
2022/07/08 09:23:29;;;;;;;11.68;2.97;;;;;;;17.45;69.28;103047.03;4933459;29;20044;-48
2022/07/08 09:26:16;;;;;;;14.43;3.45;;;;;;;17.52;69.04;103046.00;4926507;29;20503;-50
2022/07/08 09:28:44;;;;;;;10.45;2.80;;;;;;;17.53;68.18;103036.63;4938056;29;20044;-51
2022/07/08 09:31:14;;;;;;;14.05;3.03;;;;;;;17.55;69.21;103042.72;4936097;29;20040;-47
2022/07/08 09:33:43;;;;;;;10.13;3.20;;;;;;;17.55;69.27;103042.72;4935692;29;20043;-49
2022/07/08 09:36:11;;;;;;;12.23;3.47;;;;;;;17.58;70.60;103042.19;4918381;29;20043;-50
2022/07/08 09:38:40;;;;;;;9.63;3.22;;;;;;;17.63;69.75;103043.06;4936126;29;20519;-48
2022/07/08 09:41:10;;;;;;;12.00;3.45;;;;;;;17.65;69.86;103042.78;4939348;29;20058;-48
2022/07/08 09:43:49;;;;;;;13.25;3.40;;;;;;;17.65;69.27;103034.53;4926489;29;20072;-49
2022/07/08 09:46:17;;;;;;;12.85;3.15;;;;;;;17.67;70.37;103038.69;4935392;29;20118;-49
2022/07/08 09:48:45;;;;;;;8.82;2.80;;;;;;;17.73;69.80;103039.59;4937011;29;20043;-46
2022/07/08 09:51:17;;;;;;;15.00;2.88;;;;;;;17.80;68.36;103042.97;4919244;29;20052;-50
2022/07/08 09:53:45;;;;;;;9.80;2.70;;;;;;;17.86;67.55;103041.91;4936916;29;20067;-45
2022/07/08 09:56:13;;;;;;;11.98;3.05;;;;;;;17.91;67.53;103032.84;4913959;29;20527;-46
2022/07/08 09:58:40;;;;;;;13.60;3.13;;;;;;;17.95;67.51;103035.94;4936875;29;20054;-45
2022/07/08 10:01:08;;;;;;;12.00;3.10;;;;;;;17.94;67.77;103034.25;4942627;29;20119;-45
2022/07/08 10:03:36;;;;;;;12.23;3.17;;;;;;;17.96;67.61;103023.78;4935478;29;20503;-44
2022/07/08 10:06:04;;;;;;;9.60;3.00;;;;;;;17.98;67.61;103027.13;4918678;29;20039;-46
2022/07/08 10:08:32;;;;;;;8.95;3.10;;;;;;;17.99;67.62;103034.28;4935741;29;20039;-46
2022/07/08 10:11:04;;;;;;;9.60;3.03;;;;;;;18.03;69.03;103036.25;4919365;29;20040;-48
2022/07/08 10:13:32;;;;;;;15.27;3.63;;;;;;;18.08;69.11;103038.22;4918161;29;20060;-47
2022/07/08 10:16:04;;;;;;;13.32;2.83;;;;;;;18.11;68.88;103037.69;4918326;29;20517;-47
2022/07/08 10:18:41;;;;;;;13.73;3.40;;;;;;;18.12;69.11;103047.66;4936050;29;20466;-49
2022/07/08 10:21:10;;;;;;;11.38;3.35;;;;;;;18.14;68.03;103041.88;4923133;29;20040;-48
2022/07/08 10:23:45;;;;;;;10.73;3.35;;;;;;;18.15;68.10;103044.34;4939825;29;20047;-48
2022/07/08 10:26:14;;;;;;;12.10;3.00;;;;;;;18.19;68.63;103034.44;4911977;29;20475;-49
2022/07/08 10:28:41;;;;;;;7.53;2.83;;;;;;;18.23;68.41;103043.00;4953300;29;20044;-50
2022/07/08 10:31:18;;;;;;;8.30;3.20;;;;;;;18.25;68.47;103049.94;4939928;29;20225;-50
2022/07/08 10:33:46;;;;;;;14.27;3.67;;;;;;;18.28;68.56;103046.66;4939909;29;20058;-49
2022/07/08 10:36:15;;;;;;;8.65;2.97;;;;;;;18.30;68.52;103040.84;4939447;29;20403;-51
2022/07/08 10:38:43;;;;;;;11.30;3.10;;;;;;;18.30;68.19;103036.19;4921807;29;20040;-49
2022/07/08 10:41:22;;;;;;;111.35;53.20;;;;;;;18.34;68.91;103036.47;4936150;29;20075;-48
2022/07/08 10:43:51;;;;;;;15.13;3.83;;;;;;;18.41;68.68;103041.75;4932660;29;20059;-49
2022/07/08 10:46:20;;;;;;;177.05;85.07;;;;;;;18.47;69.52;103036.00;4953388;29;20042;-47
2022/07/08 10:48:52;;;;;;;20.17;6.80;;;;;;;18.51;69.27;103042.63;4938806;29;20055;-47
2022/07/08 10:51:20;;;;;;;12.55;3.47;;;;;;;18.55;69.40;103037.44;4939697;29;20047;-48
2022/07/08 10:54:06;;;;;;;11.43;3.00;;;;;;;18.60;68.45;103026.41;4942122;29;20565;-50
2022/07/08 10:56:58;;;;;;;15.90;4.90;;;;;;;18.59;68.35;103021.16;4938944;29;20505;-51
2022/07/08 10:59:32;;;;;;;11.25;3.30;;;;;;;18.67;69.13;103038.03;4935621;29;20130;-49
2022/07/08 11:02:13;;;;;;;11.98;3.33;;;;;;;18.76;67.87;103029.22;4911060;29;20047;-48
2022/07/08 11:04:41;;;;;;;23.05;9.15;;;;;;;18.78;67.76;103027.06;4905620;29;20495;-48
2022/07/08 11:07:17;;;;;;;9.30;2.95;;;;;;;18.86;68.22;103032.09;4938447;29;20040;-48
2022/07/08 11:09:47;;;;;;;16.60;4.85;;;;;;;18.94;67.99;103023.25;4940452;29;20415;-51
2022/07/08 11:12:16;;;;;;;11.32;3.72;;;;;;;19.04;67.90;103022.47;4937845;29;20050;-50
2022/07/08 11:14:52;;;;;;;9.57;3.53;;;;;;;19.11;67.52;103023.88;4952199;29;20525;-49
2022/07/08 11:17:31;;;;;;;13.82;4.18;;;;;;;19.22;66.86;103032.19;4931188;29;20047;-48
2022/07/08 11:20:01;;;;;;;12.18;3.85;;;;;;;19.28;66.51;103029.16;4938159;29;20126;-46
2022/07/08 11:22:34;;;;;;;20.30;7.80;;;;;;;19.29;67.00;103025.31;4938630;29;20047;-49
2022/07/08 11:25:03;;;;;;;12.27;4.30;;;;;;;19.32;67.36;103018.41;4937828;29;20066;-50
2022/07/08 11:27:33;;;;;;;11.35;3.70;;;;;;;19.42;67.41;103026.69;4929112;29;20040;-48
2022/07/08 11:30:12;;;;;;;13.40;4.57;;;;;;;19.44;67.51;103015.38;4918769;29;20048;-50